Time;durP1;ratioP1;P1;durP2;ratioP2;P2;SDS_P1;SDS_P2;PMS_P1;PMS_P2;Temp;Humidity;BMP_temperature;BMP_pressure;BME280_temperature;BME280_humidity;BME280_pressure;Samples;Min_cycle;Max_cycle;Signal;HPM_P1;HPM_P2
2023/12/08 00:02:25;;;;;;;16.45;10.25;;;;;;;1.43;100.00;100740.72;5069152;28;20044;-51
2023/12/08 00:04:55;;;;;;;16.65;9.90;;;;;;;1.49;100.00;100732.75;5068635;28;20051;-54
2023/12/08 00:07:23;;;;;;;19.92;9.80;;;;;;;1.45;100.00;100730.31;5068150;28;20055;-51
2023/12/08 00:09:52;;;;;;;16.52;9.43;;;;;;;1.45;100.00;100725.13;5067763;28;20721;-53
2023/12/08 00:12:20;;;;;;;16.10;10.00;;;;;;;1.46;100.00;100721.63;5066944;28;20052;-52
2023/12/08 00:14:48;;;;;;;17.77;10.20;;;;;;;1.45;100.00;100714.75;5067761;28;20082;-53
2023/12/08 00:17:16;;;;;;;15.13;9.00;;;;;;;1.48;100.00;100699.09;5071914;28;20085;-51
2023/12/08 00:19:49;;;;;;;18.63;9.77;;;;;;;1.51;100.00;100699.00;5071775;28;20113;-49
2023/12/08 00:22:17;;;;;;;18.48;9.30;;;;;;;1.52;100.00;100696.38;5071778;28;20051;-52
2023/12/08 00:24:48;;;;;;;17.83;10.27;;;;;;;1.52;100.00;100687.75;5071870;28;20068;-50
2023/12/08 00:27:16;;;;;;;15.88;9.30;;;;;;;1.50;100.00;100679.16;5071785;28;20094;-51
2023/12/08 00:29:44;;;;;;;15.80;9.50;;;;;;;1.48;100.00;100673.19;5071276;28;20501;-52
2023/12/08 00:32:13;;;;;;;18.15;9.70;;;;;;;1.49;100.00;100670.53;5068147;28;20507;-53
2023/12/08 00:34:41;;;;;;;16.10;9.30;;;;;;;1.45;100.00;100670.69;5067232;28;20056;-52
2023/12/08 00:37:11;;;;;;;16.38;8.95;;;;;;;1.44;100.00;100658.63;5070189;28;20041;-50
2023/12/08 00:39:40;;;;;;;18.05;9.13;;;;;;;1.43;100.00;100654.34;5069900;28;20384;-52
2023/12/08 00:42:08;;;;;;;17.73;9.70;;;;;;;1.42;100.00;100653.50;5071112;28;20044;-52
2023/12/08 00:44:37;;;;;;;17.75;9.15;;;;;;;1.40;100.00;100644.91;5071379;28;20061;-53
2023/12/08 00:47:05;;;;;;;16.45;9.18;;;;;;;1.45;100.00;100637.00;5071543;28;20115;-52
2023/12/08 00:49:33;;;;;;;15.23;8.52;;;;;;;1.46;100.00;100636.94;5071354;28;20059;-50
2023/12/08 00:52:05;;;;;;;18.70;9.23;;;;;;;1.44;100.00;100649.09;5070970;28;20522;-49
2023/12/08 00:54:35;;;;;;;16.02;8.70;;;;;;;1.44;100.00;100632.72;5068029;28;20083;-53
2023/12/08 00:57:05;;;;;;;17.98;9.32;;;;;;;1.42;100.00;100622.41;5067309;28;20036;-52
2023/12/08 00:59:33;;;;;;;17.50;9.80;;;;;;;1.40;100.00;100621.56;5071479;28;20459;-53
2023/12/08 01:02:01;;;;;;;15.75;9.05;;;;;;;1.42;100.00;100621.53;5071335;28;20066;-52
2023/12/08 01:04:30;;;;;;;17.08;9.60;;;;;;;1.42;100.00;100621.53;5071327;28;20083;-54
2023/12/08 01:06:58;;;;;;;15.25;8.88;;;;;;;1.44;100.00;100619.75;5071151;28;20036;-53
2023/12/08 01:09:26;;;;;;;15.02;9.00;;;;;;;1.41;100.00;100612.06;5070796;28;20842;-51
2023/12/08 01:11:55;;;;;;;14.40;8.13;;;;;;;1.44;100.00;100609.38;5066932;28;20508;-52
2023/12/08 01:14:24;;;;;;;16.75;9.07;;;;;;;1.43;100.00;100600.78;5069522;28;20075;-52
2023/12/08 01:16:52;;;;;;;15.30;8.95;;;;;;;1.44;100.00;100617.16;5070029;28;20048;-53
2023/12/08 01:19:20;;;;;;;17.73;9.82;;;;;;;1.36;100.00;100625.16;5068550;28;20515;-53
2023/12/08 01:21:48;;;;;;;15.00;8.70;;;;;;;1.38;100.00;100625.09;5070616;28;20134;-53
2023/12/08 01:24:16;;;;;;;18.23;9.27;;;;;;;1.39;100.00;100624.22;5073630;28;20090;-54
2023/12/08 01:26:45;;;;;;;15.15;8.30;;;;;;;1.42;100.00;100611.16;5074873;28;20430;-50
2023/12/08 01:29:14;;;;;;;15.32;9.27;;;;;;;1.45;100.00;100603.31;5071913;28;20098;-53
2023/12/08 01:31:43;;;;;;;16.25;9.10;;;;;;;1.42;100.00;100609.44;5071480;28;20055;-51
2023/12/08 01:34:11;;;;;;;16.13;9.38;;;;;;;1.44;100.00;100612.81;5071212;28;20042;-53
2023/12/08 01:36:39;;;;;;;18.48;9.48;;;;;;;1.48;100.00;100624.78;5071213;28;20112;-52
2023/12/08 01:39:12;;;;;;;16.47;8.70;;;;;;;1.47;100.00;100623.09;5071479;28;20520;-54
2023/12/08 01:41:40;;;;;;;16.70;9.50;;;;;;;1.56;100.00;100621.97;5071794;28;20480;-53
2023/12/08 01:44:09;;;;;;;14.80;8.52;;;;;;;1.54;100.00;100622.91;5074343;28;20057;-54
2023/12/08 01:46:39;;;;;;;16.40;8.98;;;;;;;1.48;100.00;100613.56;5074535;28;20140;-54
2023/12/08 01:49:10;;;;;;;14.85;8.65;;;;;;;1.47;100.00;100615.31;5073206;28;20050;-53
2023/12/08 01:51:39;;;;;;;13.77;8.40;;;;;;;1.43;100.00;100611.13;5072357;28;20048;-53
2023/12/08 01:54:08;;;;;;;15.45;9.18;;;;;;;1.48;100.00;100619.59;5070604;28;20043;-52
2023/12/08 01:56:37;;;;;;;13.48;8.40;;;;;;;1.48;100.00;100608.38;5073193;28;20047;-51
2023/12/08 01:59:05;;;;;;;14.10;8.82;;;;;;;1.58;100.00;100611.53;5071275;28;20041;-54
2023/12/08 02:01:34;;;;;;;15.48;8.38;;;;;;;1.64;100.00;100621.72;5071618;28;20052;-53
2023/12/08 02:04:05;;;;;;;12.63;7.95;;;;;;;1.64;100.00;100619.13;5072688;28;20140;-52
2023/12/08 02:06:34;;;;;;;15.18;8.48;;;;;;;1.62;100.00;100605.34;5070865;28;20040;-54
2023/12/08 02:09:02;;;;;;;15.98;8.80;;;;;;;1.62;100.00;100589.81;5071703;28;20110;-53
2023/12/08 02:11:31;;;;;;;14.77;8.68;;;;;;;1.54;100.00;100589.19;5073941;28;20131;-54
2023/12/08 02:13:59;;;;;;;14.90;8.75;;;;;;;1.57;100.00;100577.00;5069257;28;20060;-52
2023/12/08 02:16:34;;;;;;;13.73;7.93;;;;;;;1.64;100.00;100595.81;5071462;28;20052;-54
2023/12/08 02:19:07;;;;;;;13.77;8.27;;;;;;;1.67;100.00;100590.50;5074035;28;20048;-53
2023/12/08 02:21:36;;;;;;;14.70;8.07;;;;;;;1.60;100.00;100576.06;5073870;28;20135;-53
2023/12/08 02:24:07;;;;;;;13.65;8.48;;;;;;;1.60;100.00;100582.06;5072456;28;20086;-52
2023/12/08 02:26:35;;;;;;;14.63;8.95;;;;;;;1.54;100.00;100581.44;5073844;28;20054;-51
2023/12/08 02:29:05;;;;;;;16.80;9.70;;;;;;;1.57;100.00;100576.13;5072677;28;20040;-51
2023/12/08 02:31:41;;;;;;;15.48;9.10;;;;;;;1.56;100.00;100570.13;5073208;28;20514;-51
2023/12/08 02:34:11;;;;;;;14.75;9.10;;;;;;;1.54;100.00;100565.88;5073247;28;20068;-51
2023/12/08 02:36:40;;;;;;;15.07;9.57;;;;;;;1.49;100.00;100569.47;5069268;28;20083;-52
2023/12/08 02:39:12;;;;;;;16.02;8.98;;;;;;;1.52;100.00;100553.81;5070886;28;20052;-53
2023/12/08 02:41:42;;;;;;;14.57;8.70;;;;;;;1.56;100.00;100543.34;5073467;28;20048;-53
2023/12/08 02:44:10;;;;;;;15.43;9.05;;;;;;;1.51;100.00;100546.94;5073211;28;20057;-54
2023/12/08 02:46:40;;;;;;;18.08;9.10;;;;;;;1.45;100.00;100539.34;5073349;28;20052;-52
2023/12/08 02:49:08;;;;;;;15.52;8.75;;;;;;;1.46;100.00;100538.47;5073312;28;20053;-50
2023/12/08 02:51:37;;;;;;;14.88;9.48;;;;;;;1.43;100.00;100535.97;5071980;28;20119;-51
2023/12/08 02:54:05;;;;;;;15.50;9.18;;;;;;;1.44;100.00;100535.06;5069575;28;20120;-50
2023/12/08 02:56:35;;;;;;;15.40;8.68;;;;;;;1.41;100.00;100539.50;5069324;28;20043;-50
2023/12/08 02:59:05;;;;;;;14.35;8.27;;;;;;;1.37;100.00;100530.97;5072098;28;20052;-49
2023/12/08 03:01:33;;;;;;;17.42;10.15;;;;;;;1.36;100.00;100529.28;5073075;28;20101;-50
2023/12/08 03:04:01;;;;;;;15.98;9.18;;;;;;;1.36;100.00;100521.50;5069859;28;20040;-49
2023/12/08 03:06:29;;;;;;;14.40;8.80;;;;;;;1.38;100.00;100511.06;5070763;28;20052;-50
2023/12/08 03:09:00;;;;;;;17.20;9.82;;;;;;;1.38;100.00;100519.72;5073332;28;20052;-49
2023/12/08 03:11:28;;;;;;;16.38;9.70;;;;;;;1.35;100.00;100515.47;5072936;28;20048;-50
2023/12/08 03:13:58;;;;;;;16.95;9.88;;;;;;;1.35;100.00;100504.28;5072682;28;20064;-52
2023/12/08 03:16:26;;;;;;;17.00;9.57;;;;;;;1.35;100.00;100488.72;5072880;28;20036;-53
2023/12/08 03:18:54;;;;;;;18.58;10.10;;;;;;;1.34;100.00;100497.38;5072551;28;20037;-52
2023/12/08 03:21:26;;;;;;;18.02;9.80;;;;;;;1.37;100.00;100491.25;5072144;28;20097;-51
2023/12/08 03:23:55;;;;;;;16.92;10.13;;;;;;;1.32;100.00;100484.50;5072233;28;20535;-50
2023/12/08 03:26:23;;;;;;;16.08;9.70;;;;;;;1.31;100.00;100490.56;5067254;28;20718;-54
2023/12/08 03:28:51;;;;;;;18.75;10.98;;;;;;;1.32;100.00;100488.81;5069291;28;20056;-51
2023/12/08 03:31:26;;;;;;;18.42;10.82;;;;;;;1.29;100.00;100483.72;5068040;28;20060;-54
2023/12/08 03:33:55;;;;;;;19.23;10.57;;;;;;;1.30;100.00;100481.09;5070547;28;20040;-54
2023/12/08 03:36:23;;;;;;;17.27;10.43;;;;;;;1.33;100.00;100480.16;5071186;28;20048;-53
2023/12/08 03:38:51;;;;;;;17.08;9.93;;;;;;;1.34;100.00;100464.53;5072597;28;20072;-50
2023/12/08 03:41:22;;;;;;;16.63;10.73;;;;;;;1.35;100.00;100468.00;5072351;28;20494;-51
2023/12/08 03:43:53;;;;;;;19.20;11.75;;;;;;;1.30;100.00;100462.94;5071678;28;20059;-50
2023/12/08 03:46:21;;;;;;;18.40;10.70;;;;;;;1.32;100.00;100453.41;5072454;28;20048;-52
2023/12/08 03:48:51;;;;;;;18.52;10.82;;;;;;;1.33;100.00;100459.41;5072401;28;20048;-50
2023/12/08 03:51:22;;;;;;;17.08;10.32;;;;;;;1.34;100.00;100461.94;5069481;28;20438;-52
2023/12/08 03:53:51;;;;;;;18.13;10.50;;;;;;;1.33;100.00;100449.88;5069118;28;20040;-53
2023/12/08 03:56:19;;;;;;;17.17;10.38;;;;;;;1.33;100.00;100444.69;5072242;28;20051;-52
2023/12/08 03:58:47;;;;;;;15.15;10.02;;;;;;;1.32;100.00;100436.97;5071636;28;20045;-54
2023/12/08 04:01:18;;;;;;;19.27;10.52;;;;;;;1.27;100.00;100444.06;5071941;28;20427;-54
2023/12/08 04:03:47;;;;;;;21.23;10.57;;;;;;;1.29;100.00;100447.47;5069523;28;20047;-53
2023/12/08 04:06:16;;;;;;;18.98;11.05;;;;;;;1.27;100.00;100457.00;5068536;28;20743;-55
2023/12/08 04:08:45;;;;;;;18.33;10.90;;;;;;;1.32;100.00;100452.53;5068695;28;20056;-54
2023/12/08 04:11:13;;;;;;;17.38;9.98;;;;;;;1.38;100.00;100464.44;5069288;28;20040;-52
2023/12/08 04:13:41;;;;;;;19.25;10.30;;;;;;;1.36;100.00;100472.25;5070410;28;20220;-53
2023/12/08 04:16:10;;;;;;;19.70;10.13;;;;;;;1.35;100.00;100468.84;5069250;28;20048;-51
2023/12/08 04:18:38;;;;;;;20.10;11.52;;;;;;;1.35;100.00;100463.66;5068794;28;20059;-52
2023/12/08 04:21:07;;;;;;;19.50;11.10;;;;;;;1.34;100.00;100463.72;5071561;28;20077;-50
2023/12/08 04:23:37;;;;;;;18.52;10.90;;;;;;;1.34;100.00;100461.13;5071682;28;20533;-51
2023/12/08 04:26:07;;;;;;;18.67;10.52;;;;;;;1.33;100.00;100456.81;5068313;28;20152;-53
2023/12/08 04:28:36;;;;;;;19.73;11.48;;;;;;;1.31;100.00;100456.00;5068588;28;20491;-52
2023/12/08 04:31:04;;;;;;;18.90;11.48;;;;;;;1.26;100.00;100452.75;5070725;28;20469;-51
2023/12/08 04:33:33;;;;;;;19.27;11.35;;;;;;;1.22;100.00;100446.81;5071745;28;20053;-53
2023/12/08 04:36:04;;;;;;;19.97;11.50;;;;;;;1.23;100.00;100448.50;5071542;28;20121;-52
2023/12/08 04:38:32;;;;;;;17.75;10.95;;;;;;;1.25;100.00;100464.00;5071724;28;20044;-54
2023/12/08 04:41:02;;;;;;;20.08;11.43;;;;;;;1.27;100.00;100451.81;5071492;28;20048;-52
2023/12/08 04:43:30;;;;;;;17.80;10.38;;;;;;;1.23;100.00;100447.63;5069950;28;20142;-53
2023/12/08 04:45:58;;;;;;;19.02;11.30;;;;;;;1.24;100.00;100451.94;5071729;28;20041;-57
2023/12/08 04:48:27;;;;;;;21.13;12.00;;;;;;;1.25;100.00;100446.69;5070937;28;20101;-54
2023/12/08 04:50:55;;;;;;;22.23;11.73;;;;;;;1.27;100.00;100457.88;5070953;28;20396;-54
2023/12/08 04:53:23;;;;;;;18.98;11.23;;;;;;;1.33;100.00;100470.63;5071410;28;20119;-53
2023/12/08 04:55:52;;;;;;;19.38;10.95;;;;;;;1.29;100.00;100476.78;5072784;28;20044;-53
2023/12/08 04:58:21;;;;;;;22.38;12.02;;;;;;;1.34;100.00;100466.28;5075340;28;20051;-53
2023/12/08 05:00:50;;;;;;;22.05;12.30;;;;;;;1.33;100.00;100465.44;5075624;28;20403;-53
2023/12/08 05:03:19;;;;;;;19.90;11.50;;;;;;;1.34;100.00;100469.72;5073759;28;20071;-54
2023/12/08 05:05:47;;;;;;;19.52;12.10;;;;;;;1.35;100.00;100471.44;5073785;28;20048;-55
2023/12/08 05:08:15;;;;;;;19.92;11.88;;;;;;;1.37;100.00;100471.38;5075202;28;20039;-53
2023/12/08 05:10:43;;;;;;;21.65;11.90;;;;;;;1.31;100.00;100471.56;5075113;28;20045;-51
2023/12/08 05:13:12;;;;;;;19.92;11.95;;;;;;;1.32;100.00;100462.91;5075192;28;20127;-54
2023/12/08 05:15:42;;;;;;;21.33;12.55;;;;;;;1.33;100.00;100468.03;5073713;28;20056;-54
2023/12/08 05:18:10;;;;;;;22.65;12.05;;;;;;;1.29;100.00;100468.19;5074934;28;20048;-52
2023/12/08 05:20:40;;;;;;;24.73;12.98;;;;;;;1.31;100.00;100462.06;5075018;28;20058;-54
2023/12/08 05:23:09;;;;;;;21.55;12.70;;;;;;;1.28;100.00;100463.88;5074794;28;20109;-54
2023/12/08 05:25:37;;;;;;;22.58;12.98;;;;;;;1.30;100.00;100460.34;5073456;28;20043;-54
2023/12/08 05:28:05;;;;;;;24.15;12.40;;;;;;;1.31;100.00;100443.91;5074772;28;20765;-53
2023/12/08 05:30:36;;;;;;;22.40;12.93;;;;;;;1.32;100.00;100434.38;5074589;28;20111;-54
2023/12/08 05:33:06;;;;;;;22.65;12.68;;;;;;;1.33;100.00;100421.38;5072597;28;20044;-54
2023/12/08 05:35:34;;;;;;;21.88;12.98;;;;;;;1.38;100.00;100418.66;5071612;28;20135;-55
2023/12/08 05:38:02;;;;;;;21.45;12.00;;;;;;;1.41;100.00;100434.09;5074581;28;20443;-53
2023/12/08 05:40:30;;;;;;;22.83;12.80;;;;;;;1.35;100.00;100440.31;5074881;28;20148;-52
2023/12/08 05:42:59;;;;;;;24.52;14.65;;;;;;;1.36;100.00;100435.97;5073169;28;20450;-53
2023/12/08 05:45:27;;;;;;;25.88;14.32;;;;;;;1.34;100.00;100430.84;5074594;28;20090;-55
2023/12/08 05:47:55;;;;;;;22.38;13.45;;;;;;;1.32;100.00;100439.56;5074457;28;20040;-54
2023/12/08 05:50:25;;;;;;;25.08;13.75;;;;;;;1.31;100.00;100443.06;5074327;28;20123;-53
2023/12/08 05:52:53;;;;;;;25.77;14.65;;;;;;;1.33;100.00;100438.69;5073052;28;20385;-54
2023/12/08 05:55:21;;;;;;;23.63;13.77;;;;;;;1.34;100.00;100427.44;5074172;28;20060;-54
2023/12/08 05:57:49;;;;;;;22.50;13.50;;;;;;;1.31;100.00;100443.06;5073111;28;20068;-52
2023/12/08 06:00:19;;;;;;;24.05;13.48;;;;;;;1.33;100.00;100438.69;5074274;28;20123;-53
2023/12/08 06:02:47;;;;;;;25.30;14.40;;;;;;;1.30;100.00;100441.38;5074459;28;20045;-52
2023/12/08 06:05:16;;;;;;;23.90;13.60;;;;;;;1.29;100.00;100440.53;5073319;28;20430;-53
2023/12/08 06:07:45;;;;;;;21.88;13.15;;;;;;;1.35;100.00;100442.91;5070373;28;20048;-54
2023/12/08 06:10:14;;;;;;;25.40;13.65;;;;;;;1.31;100.00;100441.31;5070653;28;20506;-52
2023/12/08 06:12:42;;;;;;;27.05;14.10;;;;;;;1.32;100.00;100443.03;5071930;28;20055;-53
2023/12/08 06:15:11;;;;;;;24.17;14.68;;;;;;;1.35;100.00;100442.91;5074153;28;20041;-51
2023/12/08 06:17:40;;;;;;;24.08;14.70;;;;;;;1.33;100.00;100439.53;5071064;28;20052;-54
2023/12/08 06:20:09;;;;;;;26.73;14.15;;;;;;;1.32;100.00;100431.78;5071982;28;20052;-53
2023/12/08 06:22:38;;;;;;;24.70;15.02;;;;;;;1.31;100.00;100448.22;5073820;28;20121;-52
2023/12/08 06:25:08;;;;;;;24.80;14.77;;;;;;;1.30;100.00;100451.75;5073729;28;20048;-53
2023/12/08 06:27:37;;;;;;;25.45;14.38;;;;;;;1.35;100.00;100447.25;5069908;28;20049;-54
2023/12/08 06:30:08;;;;;;;24.00;15.32;;;;;;;1.33;100.00;100449.88;5070434;28;20062;-55
2023/12/08 06:32:37;;;;;;;28.02;16.55;;;;;;;1.35;100.00;100449.84;5071176;28;20113;-54
2023/12/08 06:35:06;;;;;;;27.60;16.35;;;;;;;1.40;100.00;100450.53;5072968;28;20503;-53
2023/12/08 06:37:35;;;;;;;26.17;15.10;;;;;;;1.36;100.00;100454.13;5073480;28;20535;-53
2023/12/08 06:40:04;;;;;;;26.42;15.52;;;;;;;1.34;100.00;100456.75;5072265;28;20036;-54
2023/12/08 06:42:33;;;;;;;25.70;14.15;;;;;;;1.38;100.00;100456.66;5069703;28;20127;-54
2023/12/08 06:45:03;;;;;;;26.70;15.55;;;;;;;1.42;100.00;100456.53;5070439;28;20059;-53
2023/12/08 06:47:32;;;;;;;28.17;15.80;;;;;;;1.41;100.00;100451.41;5073321;28;20040;-55
2023/12/08 06:50:03;;;;;;;25.60;15.60;;;;;;;1.41;100.00;100457.41;5073371;28;20055;-53
2023/12/08 06:52:31;;;;;;;25.33;15.35;;;;;;;1.41;100.00;100454.00;5070411;28;20083;-54
2023/12/08 06:54:59;;;;;;;29.33;15.70;;;;;;;1.42;100.00;100445.28;5069784;28;20052;-52
2023/12/08 06:57:28;;;;;;;30.10;16.02;;;;;;;1.47;100.00;100438.22;5068893;28;20106;-53
2023/12/08 06:59:58;;;;;;;27.88;16.23;;;;;;;1.45;100.00;100453.81;5070484;28;20494;-53
2023/12/08 07:02:28;;;;;;;29.75;16.55;;;;;;;1.43;100.00;100458.22;5072973;28;20040;-54
2023/12/08 07:04:57;;;;;;;26.95;15.35;;;;;;;1.43;100.00;100466.00;5072660;28;20051;-53
2023/12/08 07:07:25;;;;;;;27.88;15.95;;;;;;;1.44;100.00;100457.31;5071446;28;20084;-53
2023/12/08 07:09:53;;;;;;;25.50;15.90;;;;;;;1.44;100.00;100459.06;5072724;28;20438;-54
2023/12/08 07:12:21;;;;;;;29.23;15.73;;;;;;;1.42;100.00;100451.34;5073147;28;20120;-53
2023/12/08 07:14:50;;;;;;;29.25;16.52;;;;;;;1.40;100.00;100447.09;5072583;28;20044;-50
2023/12/08 07:17:20;;;;;;;28.58;16.58;;;;;;;1.42;100.00;100446.16;5072869;28;20052;-54
2023/12/08 07:19:48;;;;;;;29.30;16.05;;;;;;;1.44;100.00;100451.28;5072082;28;20045;-52
2023/12/08 07:22:17;;;;;;;30.50;16.90;;;;;;;1.43;100.00;100453.03;5072672;28;20396;-52
2023/12/08 07:24:45;;;;;;;26.20;15.82;;;;;;;1.43;100.00;100455.63;5071489;28;20036;-52
2023/12/08 07:27:16;;;;;;;31.00;15.95;;;;;;;1.41;100.00;100457.41;5072773;28;20045;-53
2023/12/08 07:29:44;;;;;;;28.02;16.90;;;;;;;1.40;100.00;100453.13;5072514;28;20518;-52
2023/12/08 07:32:12;;;;;;;28.98;16.83;;;;;;;1.46;100.00;100449.47;5072483;28;20456;-53
2023/12/08 07:34:45;;;;;;;29.13;16.35;;;;;;;1.47;100.00;100446.00;5072433;28;20048;-47
2023/12/08 07:37:13;;;;;;;31.00;16.65;;;;;;;1.47;100.00;100449.44;5072218;28;20044;-47
2023/12/08 07:39:43;;;;;;;29.98;16.65;;;;;;;1.47;100.00;100454.63;5072526;28;20048;-48
2023/12/08 07:42:12;;;;;;;32.20;17.25;;;;;;;1.52;100.00;100460.47;5072395;28;20071;-46
2023/12/08 07:44:43;;;;;;;29.80;17.83;;;;;;;1.50;100.00;100469.22;5070790;28;20143;-46
2023/12/08 07:47:12;;;;;;;27.40;16.85;;;;;;;1.49;100.00;100470.13;5069044;28;20518;-48
2023/12/08 07:49:40;;;;;;;30.17;16.58;;;;;;;1.49;100.00;100467.53;5069504;28;20541;-48
2023/12/08 07:52:10;;;;;;;30.38;16.38;;;;;;;1.50;100.00;100471.81;5071901;28;20044;-45
2023/12/08 07:54:38;;;;;;;29.85;17.95;;;;;;;1.58;100.00;100475.00;5071902;28;20040;-48
2023/12/08 07:57:07;;;;;;;32.47;18.25;;;;;;;1.55;100.00;100485.47;5071479;28;20556;-50
2023/12/08 07:59:36;;;;;;;28.80;17.02;;;;;;;1.51;100.00;100482.16;5070409;28;20044;-48
2023/12/08 08:02:04;;;;;;;31.98;17.13;;;;;;;1.56;100.00;100487.16;5071728;28;20055;-49
2023/12/08 08:04:32;;;;;;;33.92;16.90;;;;;;;1.59;100.00;100501.78;5072127;28;20088;-50
2023/12/08 08:07:01;;;;;;;29.30;16.88;;;;;;;1.63;100.00;100488.63;5071904;28;20051;-49
2023/12/08 08:09:30;;;;;;;33.45;17.25;;;;;;;1.61;100.00;100494.78;5070509;28;20036;-51
2023/12/08 08:11:59;;;;;;;27.42;16.50;;;;;;;1.62;100.00;100491.28;5071718;28;20048;-50
2023/12/08 08:14:30;;;;;;;30.17;17.02;;;;;;;1.59;100.00;100500.00;5071983;28;20051;-47
2023/12/08 08:16:59;;;;;;;31.38;16.60;;;;;;;1.62;100.00;100506.84;5071428;28;20045;-47
2023/12/08 08:19:27;;;;;;;31.45;16.02;;;;;;;1.63;100.00;100505.94;5071670;28;20090;-46
2023/12/08 08:21:55;;;;;;;37.03;18.10;;;;;;;1.63;100.00;100495.59;5071611;28;20058;-47
2023/12/08 08:24:45;;;;;;;32.53;16.60;;;;;;;1.68;100.00;100498.88;5070345;28;20052;-48
2023/12/08 08:27:16;;;;;;;34.00;18.38;;;;;;;1.68;100.00;100491.09;5071959;28;20403;-48
2023/12/08 08:29:44;;;;;;;33.67;17.65;;;;;;;1.68;100.00;100491.09;5071419;28;20048;-46
2023/12/08 08:32:13;;;;;;;29.58;16.70;;;;;;;1.69;100.00;100480.66;5071534;28;20044;-47
2023/12/08 08:34:42;;;;;;;31.60;16.60;;;;;;;1.75;100.00;100479.59;5071915;28;20043;-50
2023/12/08 08:37:10;;;;;;;31.63;17.45;;;;;;;1.77;100.00;100487.34;5071393;28;20499;-47
2023/12/08 08:39:39;;;;;;;32.97;17.10;;;;;;;1.77;100.00;100492.50;5070073;28;20090;-46
2023/12/08 08:42:09;;;;;;;29.15;16.15;;;;;;;1.78;100.00;100496.81;5071266;28;20392;-49
2023/12/08 08:44:38;;;;;;;31.20;16.73;;;;;;;1.85;100.00;100506.06;5071357;28;20060;-46
2023/12/08 08:47:07;;;;;;;29.23;15.80;;;;;;;1.85;100.00;100495.69;5071497;28;20523;-47
2023/12/08 08:49:38;;;;;;;30.10;16.95;;;;;;;1.85;100.00;100498.28;5070071;28;20479;-47
2023/12/08 08:52:07;;;;;;;32.70;16.77;;;;;;;1.86;100.00;100498.22;5071574;28;20044;-46
2023/12/08 08:54:35;;;;;;;30.98;17.02;;;;;;;1.86;100.00;100505.19;5071564;28;20059;-46
2023/12/08 08:57:04;;;;;;;32.13;16.52;;;;;;;1.89;100.00;100502.47;5071353;28;20123;-47
2023/12/08 08:59:34;;;;;;;32.05;17.88;;;;;;;1.90;100.00;100488.59;5071349;28;20373;-47
2023/12/08 09:02:02;;;;;;;33.38;17.38;;;;;;;2.00;100.00;100491.72;5068376;28;20518;-48
2023/12/08 09:04:30;;;;;;;30.25;17.20;;;;;;;2.01;100.00;100494.25;5067975;28;20503;-47
2023/12/08 09:06:59;;;;;;;33.17;17.98;;;;;;;2.02;100.00;100497.72;5071041;28;20057;-48
2023/12/08 09:09:28;;;;;;;30.52;16.88;;;;;;;2.06;100.00;100496.72;5070877;28;20235;-48
2023/12/08 09:11:56;;;;;;;33.33;17.88;;;;;;;2.05;100.00;100497.59;5071116;28;20048;-51
2023/12/08 09:14:24;;;;;;;33.30;17.75;;;;;;;2.07;100.00;100506.16;5068528;28;20059;-51
2023/12/08 09:16:53;;;;;;;33.25;18.20;;;;;;;2.07;100.00;100508.75;5068101;28;20101;-51
2023/12/08 09:19:22;;;;;;;30.48;17.52;;;;;;;2.11;100.00;100518.13;5067662;28;20476;-49
2023/12/08 09:21:50;;;;;;;33.90;17.02;;;;;;;2.13;100.00;100511.16;5071234;28;20419;-50
2023/12/08 09:24:25;;;;;;;30.05;17.27;;;;;;;2.14;100.00;100515.44;5069356;28;20738;-49
2023/12/08 09:26:54;;;;;;;31.50;15.77;;;;;;;2.18;100.00;100522.22;5066818;28;20156;-49
2023/12/08 09:29:22;;;;;;;30.50;17.48;;;;;;;2.19;100.00;100523.88;5070652;28;20036;-49
2023/12/08 09:31:50;;;;;;;29.50;16.33;;;;;;;2.22;100.00;100522.94;5070082;28;20182;-51
2023/12/08 09:34:20;;;;;;;29.88;16.75;;;;;;;2.24;100.00;100536.72;5067955;28;20561;-46
2023/12/08 09:36:48;;;;;;;35.45;17.35;;;;;;;2.24;100.00;100531.53;5069216;28;20044;-46
2023/12/08 09:39:36;;;;;;;29.33;16.58;;;;;;;2.23;100.00;100527.25;5071111;28;20118;-45
2023/12/08 09:42:08;;;;;;;28.95;16.33;;;;;;;2.24;100.00;100526.34;5072496;28;20048;-46
2023/12/08 09:44:37;;;;;;;29.70;15.85;;;;;;;2.25;100.00;100528.03;5073146;28;20057;-46
2023/12/08 09:47:09;;;;;;;32.78;17.48;;;;;;;2.27;100.00;100525.38;5074491;28;20048;-47
2023/12/08 09:49:43;;;;;;;30.52;17.02;;;;;;;2.29;100.00;100528.75;5074528;28;20044;-49
2023/12/08 09:52:15;;;;;;;34.53;17.92;;;;;;;2.29;100.00;100533.94;5074259;28;20135;-45
2023/12/08 09:54:44;;;;;;;29.43;17.20;;;;;;;2.34;100.00;100524.25;5074345;28;20124;-48
2023/12/08 09:57:14;;;;;;;33.65;18.60;;;;;;;2.35;100.00;100523.38;5074380;28;20045;-46
2023/12/08 09:59:43;;;;;;;33.97;18.00;;;;;;;2.35;100.00;100520.78;5072482;28;20057;-46
2023/12/08 10:02:11;;;;;;;30.20;16.77;;;;;;;2.40;100.00;100521.47;5071048;28;20053;-48
2023/12/08 10:04:43;;;;;;;31.92;16.90;;;;;;;2.42;100.00;100524.00;5072756;28;20433;-48
2023/12/08 10:07:12;;;;;;;30.10;17.65;;;;;;;2.44;100.00;100523.03;5072631;28;20048;-46
2023/12/08 10:09:42;;;;;;;31.40;17.98;;;;;;;2.46;100.00;100536.78;5070254;28;20055;-46
2023/12/08 10:12:10;;;;;;;31.42;16.90;;;;;;;2.49;100.00;100539.28;5072163;28;20454;-46
2023/12/08 10:14:52;;;;;;;36.05;18.10;;;;;;;2.50;100.00;100538.38;5072738;28;20052;-48
2023/12/08 10:17:21;;;;;;;34.38;19.73;;;;;;;2.54;100.00;100533.94;5073997;28;20052;-45
2023/12/08 10:19:52;;;;;;;34.40;18.45;;;;;;;2.52;100.00;100534.00;5073631;28;20037;-46
2023/12/08 10:22:21;;;;;;;38.50;19.33;;;;;;;2.57;100.00;100522.59;5073537;28;20095;-47
2023/12/08 10:24:49;;;;;;;35.08;18.48;;;;;;;2.58;100.00;100522.53;5073908;28;20054;-54
2023/12/08 10:27:17;;;;;;;37.75;20.10;;;;;;;2.60;100.00;100523.28;5073770;28;20040;-53
2023/12/08 10:29:45;;;;;;;38.65;19.58;;;;;;;2.63;100.00;100520.63;5073635;28;20048;-53
2023/12/08 10:32:14;;;;;;;37.65;19.42;;;;;;;2.67;100.00;100518.72;5073930;28;20507;-54
2023/12/08 10:34:43;;;;;;;37.42;19.13;;;;;;;2.67;100.00;100523.91;5073823;28;20468;-54
2023/12/08 10:37:12;;;;;;;37.65;19.42;;;;;;;2.72;100.00;100534.16;5073714;28;20079;-53
2023/12/08 10:39:40;;;;;;;37.15;19.13;;;;;;;2.75;100.00;100537.47;5073627;28;20045;-54
2023/12/08 10:42:09;;;;;;;38.75;20.35;;;;;;;2.78;100.00;100537.38;5073055;28;20051;-54
2023/12/08 10:44:40;;;;;;;40.00;20.33;;;;;;;2.81;100.00;100536.38;5069855;28;20482;-54
2023/12/08 10:47:08;;;;;;;41.38;19.90;;;;;;;2.89;100.00;100534.38;5071389;28;20052;-54
2023/12/08 10:49:38;;;;;;;45.33;21.55;;;;;;;2.91;100.00;100531.72;5073309;28;20419;-55
2023/12/08 10:52:08;;;;;;;43.40;21.35;;;;;;;2.95;100.00;100533.28;5073202;28;20052;-54
2023/12/08 10:54:37;;;;;;;42.42;19.63;;;;;;;2.93;100.00;100530.75;5072248;28;20103;-53
2023/12/08 10:57:06;;;;;;;45.63;22.88;;;;;;;2.93;100.00;100524.69;5073295;28;20044;-53
2023/12/08 10:59:40;;;;;;;46.95;21.27;;;;;;;2.97;100.00;100529.72;5073407;28;20059;-48
2023/12/08 11:02:19;;;;;;;44.63;21.35;;;;;;;3.03;100.00;100528.63;5073006;28;20051;-46
2023/12/08 11:04:55;;;;;;;48.30;21.98;;;;;;;3.08;100.00;100534.50;5073151;28;20044;-47
2023/12/08 11:07:32;;;;;;;51.00;23.02;;;;;;;3.06;100.00;100538.06;5072863;28;20059;-48
2023/12/08 11:10:07;;;;;;;47.25;21.52;;;;;;;3.11;100.00;100533.53;5071325;28;20451;-49
2023/12/08 11:12:43;;;;;;;49.67;22.02;;;;;;;3.16;100.00;100529.88;5072802;28;20503;-51
2023/12/08 11:15:16;;;;;;;50.90;20.85;;;;;;;3.20;100.00;100539.22;5072893;28;20083;-47
2023/12/08 11:17:52;;;;;;;50.45;21.38;;;;;;;3.27;100.00;100525.97;5072333;28;20411;-47
2023/12/08 11:20:21;;;;;;;55.97;22.95;;;;;;;3.27;100.00;100528.56;5072470;28;20085;-46
2023/12/08 11:22:50;;;;;;;51.97;22.00;;;;;;;3.29;100.00;100526.78;5072643;28;20050;-46